Time;durP1;ratioP1;P1;durP2;ratioP2;P2;SDS_P1;SDS_P2;PMS_P1;PMS_P2;Temp;Humidity;BMP_temperature;BMP_pressure;BME280_temperature;BME280_humidity;BME280_pressure;Samples;Min_cycle;Max_cycle;Signal;HPM_P1;HPM_P2
2021/09/24 00:00:20;;;;;;;10.10;3.38;;;16.90;91.60;;;;;;5012557;28;20022;-81
2021/09/24 00:02:46;;;;;;;10.55;2.30;;;16.80;91.60;;;;;;4996031;28;20163;-80
2021/09/24 00:05:11;;;;;;;9.60;2.85;;;16.80;91.60;;;;;;4996166;28;20439;-81
2021/09/24 00:07:37;;;;;;;6.88;2.28;;;16.80;91.60;;;;;;4996213;28;20034;-81
2021/09/24 00:10:06;;;;;;;14.32;3.28;;;16.80;91.60;;;;;;5012597;28;20388;-81
2021/09/24 00:12:32;;;;;;;17.02;3.08;;;16.80;91.60;;;;;;5013644;28;20029;-81
2021/09/24 00:14:58;;;;;;;10.82;4.30;;;16.80;91.60;;;;;;4996145;28;20033;-81
2021/09/24 00:17:23;;;;;;;9.02;2.55;;;16.80;91.60;;;;;;4996218;28;20504;-80
2021/09/24 00:19:49;;;;;;;14.90;3.78;;;16.80;91.70;;;;;;5012629;28;20036;-80
2021/09/24 00:22:15;;;;;;;9.52;3.20;;;16.80;91.70;;;;;;5013619;28;20029;-80
2021/09/24 00:24:40;;;;;;;10.38;2.83;;;16.80;91.70;;;;;;4992159;28;20041;-81
2021/09/24 00:27:06;;;;;;;8.43;2.65;;;16.80;91.70;;;;;;5008864;28;20030;-80
2021/09/24 00:29:32;;;;;;;11.35;2.90;;;16.80;91.80;;;;;;5008925;28;20485;-81
2021/09/24 00:31:57;;;;;;;12.50;3.08;;;16.80;92.00;;;;;;5009079;28;20501;-80
2021/09/24 00:34:23;;;;;;;12.30;3.33;;;16.80;91.80;;;;;;5009613;28;20466;-80
2021/09/24 00:36:49;;;;;;;11.25;3.03;;;16.70;91.80;;;;;;5008990;28;20038;-80
2021/09/24 00:39:15;;;;;;;11.20;3.30;;;16.70;91.80;;;;;;5009734;28;20065;-80
2021/09/24 00:41:40;;;;;;;11.15;3.38;;;16.70;91.90;;;;;;5013109;28;20037;-81
2021/09/24 00:44:06;;;;;;;10.55;3.35;;;16.70;91.90;;;;;;4997928;28;20102;-80
2021/09/24 00:46:32;;;;;;;7.57;2.95;;;16.70;91.90;;;;;;4997757;28;20034;-81
2021/09/24 00:48:57;;;;;;;13.35;3.65;;;16.60;91.90;;;;;;5012710;28;20494;-81
2021/09/24 00:51:23;;;;;;;8.73;2.90;;;16.60;92.00;;;;;;4997537;28;20031;-81
2021/09/24 00:53:49;;;;;;;9.32;3.08;;;16.60;91.90;;;;;;5012599;28;20018;-81
2021/09/24 00:56:16;;;;;;;11.77;2.83;;;16.60;92.20;;;;;;5012567;28;20034;-80
2021/09/24 00:58:42;;;;;;;11.25;3.03;;;16.60;92.00;;;;;;5012437;28;20031;-80
2021/09/24 01:01:08;;;;;;;11.23;3.22;;;16.60;92.00;;;;;;5012426;28;20029;-81
2021/09/24 01:03:34;;;;;;;6.35;2.30;;;16.60;92.00;;;;;;5012663;28;20497;-80
2021/09/24 01:05:59;;;;;;;11.40;2.65;;;16.60;92.00;;;;;;4997307;28;20030;-81
2021/09/24 01:08:25;;;;;;;14.00;3.25;;;16.60;92.00;;;;;;4997929;28;20034;-80
2021/09/24 01:10:51;;;;;;;9.32;2.70;;;16.60;92.10;;;;;;5012425;28;20097;-80
2021/09/24 01:13:17;;;;;;;8.05;2.58;;;16.50;92.00;;;;;;5012447;28;20109;-80
2021/09/24 01:15:43;;;;;;;8.13;2.97;;;16.60;92.10;;;;;;5012285;28;20072;-80
2021/09/24 01:18:09;;;;;;;13.27;3.35;;;16.60;92.10;;;;;;5012009;28;20112;-80
2021/09/24 01:20:35;;;;;;;8.98;2.10;;;16.60;92.10;;;;;;4997107;28;20021;-80
2021/09/24 01:23:00;;;;;;;8.70;2.13;;;16.50;92.10;;;;;;5012217;28;20031;-80
2021/09/24 01:25:27;;;;;;;11.18;2.85;;;16.60;92.10;;;;;;5012071;28;20077;-80
2021/09/24 01:27:53;;;;;;;8.88;3.13;;;16.50;92.10;;;;;;5012110;28;20042;-80
2021/09/24 01:30:19;;;;;;;9.35;3.10;;;16.60;92.10;;;;;;5011990;28;20022;-80
2021/09/24 01:32:46;;;;;;;12.88;3.35;;;16.60;92.10;;;;;;4995526;28;20061;-80
2021/09/24 01:35:13;;;;;;;9.57;2.97;;;16.50;92.10;;;;;;4996824;28;20077;-80
2021/09/24 01:37:39;;;;;;;13.77;3.90;;;16.50;92.10;;;;;;5011745;28;20037;-81
2021/09/24 01:40:23;;;;;;;9.25;2.85;;;16.50;92.10;;;;;;4996710;28;20482;-80
2021/09/24 01:42:54;;;;;;;11.18;3.03;;;16.50;92.10;;;;;;5011793;28;20113;-80
2021/09/24 01:45:21;;;;;;;9.20;3.25;;;16.50;92.10;;;;;;5011628;28;20031;-80
2021/09/24 01:47:47;;;;;;;9.25;3.55;;;16.50;92.10;;;;;;5011651;28;20034;-80
2021/09/24 01:50:13;;;;;;;8.60;3.42;;;16.50;92.10;;;;;;4996164;28;20478;-80
2021/09/24 01:52:39;;;;;;;13.32;3.75;;;16.50;92.10;;;;;;5011800;28;20063;-80
2021/09/24 01:55:07;;;;;;;10.02;3.60;;;16.40;92.20;;;;;;4996513;28;20541;-80
2021/09/24 01:57:32;;;;;;;14.00;4.07;;;16.40;92.20;;;;;;4996381;28;20038;-80
2021/09/24 01:59:58;;;;;;;14.90;3.78;;;16.40;92.20;;;;;;4996484;28;20541;-80
2021/09/24 02:02:24;;;;;;;9.15;3.28;;;16.40;92.20;;;;;;4996533;28;20035;-80
2021/09/24 02:04:49;;;;;;;12.45;4.35;;;16.40;92.20;;;;;;5011427;28;20142;-80
2021/09/24 02:07:15;;;;;;;10.77;4.28;;;16.40;92.20;;;;;;5011580;28;20030;-80
2021/09/24 02:09:41;;;;;;;11.10;3.75;;;16.40;92.30;;;;;;5011360;28;20022;-79
2021/09/24 02:12:07;;;;;;;13.73;4.90;;;16.40;92.30;;;;;;4996418;28;20030;-81
2021/09/24 02:14:33;;;;;;;9.68;4.10;;;16.40;92.40;;;;;;5011520;28;20030;-80
2021/09/24 02:16:59;;;;;;;14.60;4.60;;;16.40;92.40;;;;;;5011307;28;20027;-80
2021/09/24 02:19:25;;;;;;;8.05;4.03;;;16.40;92.40;;;;;;5010976;28;20130;-79
2021/09/24 02:21:50;;;;;;;11.57;3.80;;;16.40;92.50;;;;;;4994764;28;20456;-79
2021/09/24 02:24:16;;;;;;;13.80;4.60;;;16.40;92.50;;;;;;5011559;28;20089;-80
2021/09/24 02:26:41;;;;;;;14.30;4.18;;;16.40;92.50;;;;;;4994908;28;20034;-79
2021/09/24 02:29:07;;;;;;;10.63;4.30;;;16.40;92.50;;;;;;5010952;28;20038;-80
2021/09/24 02:31:33;;;;;;;13.05;4.15;;;16.40;92.60;;;;;;4995771;28;20038;-80
2021/09/24 02:33:59;;;;;;;12.82;4.78;;;16.50;92.60;;;;;;5010812;28;20030;-79
2021/09/24 02:36:25;;;;;;;10.38;4.03;;;16.40;92.60;;;;;;5010705;28;20113;-80
2021/09/24 02:38:51;;;;;;;9.20;3.90;;;16.40;92.60;;;;;;5010535;28;20137;-79
2021/09/24 02:41:16;;;;;;;8.40;3.75;;;16.40;92.60;;;;;;5010722;28;20030;-79
2021/09/24 02:43:42;;;;;;;8.27;4.40;;;16.50;92.60;;;;;;5010723;28;20030;-80
2021/09/24 02:46:08;;;;;;;8.85;3.97;;;16.40;92.60;;;;;;5010625;28;20442;-80
2021/09/24 02:48:33;;;;;;;11.52;3.92;;;16.40;92.60;;;;;;4995499;28;20117;-80
2021/09/24 02:50:59;;;;;;;11.80;3.70;;;16.40;92.70;;;;;;5010536;28;20034;-80
2021/09/24 02:53:25;;;;;;;8.13;3.80;;;16.40;92.70;;;;;;5010545;28;20037;-80
2021/09/24 02:55:51;;;;;;;10.40;3.55;;;16.40;92.60;;;;;;5010580;28;20038;-79
2021/09/24 02:58:16;;;;;;;9.32;3.35;;;16.40;92.60;;;;;;4995261;28;20030;-79
2021/09/24 03:00:43;;;;;;;8.05;3.20;;;16.40;92.60;;;;;;5010664;28;20033;-80
2021/09/24 03:03:08;;;;;;;9.38;3.40;;;16.40;92.60;;;;;;5009566;28;20508;-80
2021/09/24 03:05:35;;;;;;;13.23;3.42;;;16.40;92.60;;;;;;4993918;28;20038;-80
2021/09/24 03:08:02;;;;;;;12.30;3.83;;;16.40;92.60;;;;;;5010260;28;20130;-80
2021/09/24 03:10:27;;;;;;;11.32;3.35;;;16.40;92.60;;;;;;5010343;28;20081;-81
2021/09/24 03:12:54;;;;;;;17.75;3.58;;;16.30;92.60;;;;;;5010050;28;20030;-80
2021/09/24 03:15:20;;;;;;;8.85;2.65;;;16.40;92.70;;;;;;5009816;28;20114;-80
2021/09/24 03:17:46;;;;;;;11.70;3.22;;;16.40;92.70;;;;;;5009567;28;20134;-79
2021/09/24 03:20:12;;;;;;;10.57;3.35;;;16.30;92.70;;;;;;5009991;28;20041;-80
2021/09/24 03:22:39;;;;;;;9.95;3.75;;;16.30;92.60;;;;;;5010011;28;20109;-80
2021/09/24 03:25:06;;;;;;;10.32;3.72;;;16.30;92.70;;;;;;5009836;28;20061;-80
2021/09/24 03:27:34;;;;;;;13.18;4.40;;;16.30;92.60;;;;;;5009637;28;20043;-80
2021/09/24 03:30:00;;;;;;;10.30;4.35;;;16.30;92.60;;;;;;5009868;28;20053;-80
2021/09/24 03:32:25;;;;;;;12.85;4.88;;;16.30;92.60;;;;;;5009884;28;20073;-81
2021/09/24 03:34:51;;;;;;;12.05;4.80;;;16.30;92.60;;;;;;4993479;28;20409;-81
2021/09/24 03:37:17;;;;;;;12.20;4.97;;;16.30;92.60;;;;;;5009705;28;20069;-80
2021/09/24 03:39:43;;;;;;;17.13;6.95;;;16.20;92.60;;;;;;5009713;28;20031;-81
2021/09/24 03:42:10;;;;;;;14.02;6.38;;;16.20;92.70;;;;;;5009750;28;20023;-81
2021/09/24 03:44:36;;;;;;;13.32;7.43;;;16.10;92.70;;;;;;4994495;28;20382;-78
2021/09/24 03:47:03;;;;;;;15.75;8.68;;;16.10;92.70;;;;;;4994519;28;20024;-79
2021/09/24 03:49:28;;;;;;;15.25;8.50;;;16.10;92.80;;;;;;5009590;28;20493;-79
2021/09/24 03:51:55;;;;;;;18.05;9.93;;;16.00;92.90;;;;;;4993222;28;20054;-80
2021/09/24 03:54:21;;;;;;;20.13;10.25;;;16.00;93.00;;;;;;5009681;28;20038;-80
2021/09/24 03:56:46;;;;;;;16.92;11.18;;;16.00;93.00;;;;;;4994324;28;20470;-80
2021/09/24 03:59:12;;;;;;;17.08;11.98;;;16.00;93.20;;;;;;5009248;28;20033;-80
2021/09/24 04:01:39;;;;;;;21.15;13.23;;;16.00;93.20;;;;;;5009415;28;20121;-81
2021/09/24 04:04:05;;;;;;;21.42;14.43;;;15.90;93.30;;;;;;5009390;28;20062;-79
2021/09/24 04:06:31;;;;;;;28.17;15.63;;;16.00;93.50;;;;;;5009310;28;20476;-80
2021/09/24 04:08:57;;;;;;;22.23;15.20;;;15.90;93.50;;;;;;4994118;28;20113;-80
2021/09/24 04:11:23;;;;;;;27.20;15.32;;;15.90;93.80;;;;;;4994178;28;20109;-78
2021/09/24 04:13:49;;;;;;;24.02;16.20;;;15.90;93.60;;;;;;4994017;28;20398;-80
2021/09/24 04:16:15;;;;;;;26.02;16.02;;;15.80;93.60;;;;;;5009284;28;20042;-79
2021/09/24 04:18:40;;;;;;;27.33;16.98;;;15.80;93.70;;;;;;5009275;28;20078;-80
2021/09/24 04:21:06;;;;;;;28.50;18.60;;;15.80;93.70;;;;;;4993994;28;20101;-80
2021/09/24 04:23:35;;;;;;;29.70;17.67;;;15.80;93.80;;;;;;5009102;28;20114;-80
2021/09/24 04:26:01;;;;;;;26.95;19.25;;;15.80;93.80;;;;;;5009220;28;20030;-81
2021/09/24 04:28:27;;;;;;;35.45;19.73;;;15.70;93.80;;;;;;5009139;28;20367;-80
2021/09/24 04:30:53;;;;;;;35.28;22.70;;;15.80;94.00;;;;;;5009008;28;20129;-81
2021/09/24 04:33:19;;;;;;;36.20;24.67;;;15.80;94.10;;;;;;4993916;28;20031;-80
2021/09/24 04:35:45;;;;;;;44.13;26.73;;;15.70;94.20;;;;;;5008900;28;20413;-81
2021/09/24 04:38:10;;;;;;;44.20;25.58;;;15.80;94.30;;;;;;5008793;28;20038;-80
2021/09/24 04:40:36;;;;;;;45.47;27.95;;;15.70;94.30;;;;;;5008891;28;20486;-79
2021/09/24 04:43:02;;;;;;;47.25;28.13;;;15.70;94.40;;;;;;4993825;28;20109;-79
2021/09/24 04:45:28;;;;;;;48.55;29.88;;;15.70;94.50;;;;;;5008892;28;20393;-80
2021/09/24 04:47:54;;;;;;;51.88;29.13;;;15.70;94.70;;;;;;5009097;28;20038;-79
2021/09/24 04:50:20;;;;;;;57.47;32.83;;;15.70;94.70;;;;;;4993917;28;20606;-81
2021/09/24 04:52:45;;;;;;;55.83;31.90;;;15.70;94.90;;;;;;5009005;28;20060;-80
2021/09/24 04:55:11;;;;;;;52.58;30.70;;;15.70;94.80;;;;;;5008979;28;20034;-82
2021/09/24 04:57:37;;;;;;;59.72;32.35;;;15.70;94.90;;;;;;4993745;28;20076;-80
2021/09/24 05:00:05;;;;;;;64.30;33.72;;;15.70;95.00;;;;;;5008914;28;20026;-80
2021/09/24 05:02:31;;;;;;;65.28;35.05;;;15.70;95.10;;;;;;5008700;28;20041;-81
2021/09/24 05:04:57;;;;;;;67.75;34.42;;;15.70;95.10;;;;;;5009275;28;20023;-80
2021/09/24 05:07:22;;;;;;;63.83;32.58;;;15.80;95.10;;;;;;5008317;28;20437;-79
2021/09/24 05:09:48;;;;;;;69.15;34.40;;;15.80;95.10;;;;;;4976374;28;20031;-78
2021/09/24 05:12:14;;;;;;;68.32;35.00;;;15.80;95.10;;;;;;5023191;28;20034;-81
2021/09/24 05:14:39;;;;;;;66.85;34.33;;;15.90;95.20;;;;;;5024835;28;20373;-81
2021/09/24 05:17:05;;;;;;;72.70;36.35;;;15.90;95.20;;;;;;4993954;28;20034;-80
2021/09/24 05:19:31;;;;;;;74.60;35.15;;;15.90;95.30;;;;;;5015607;28;20081;-81
2021/09/24 05:21:57;;;;;;;71.88;36.13;;;15.90;95.30;;;;;;5001970;28;20026;-79
2021/09/24 05:24:22;;;;;;;78.50;36.20;;;15.90;95.40;;;;;;5025613;28;20018;-77
2021/09/24 05:26:48;;;;;;;75.13;36.15;;;16.00;95.40;;;;;;5023486;28;20497;-79
2021/09/24 05:29:14;;;;;;;82.13;38.08;;;16.00;95.40;;;;;;5027212;28;20153;-79
2021/09/24 05:31:40;;;;;;;71.65;36.03;;;16.00;95.50;;;;;;5024550;28;20054;-79
2021/09/24 05:34:06;;;;;;;74.97;36.85;;;16.00;95.80;;;;;;4989326;28;20035;-80
2021/09/24 05:36:32;;;;;;;71.70;36.50;;;16.00;95.60;;;;;;5001756;28;20030;-80
2021/09/24 05:38:57;;;;;;;70.35;37.75;;;16.10;95.70;;;;;;5015220;28;20121;-80
2021/09/24 05:41:23;;;;;;;70.32;35.95;;;16.10;95.70;;;;;;5015313;28;20061;-80
2021/09/24 05:43:50;;;;;;;85.55;39.60;;;16.10;95.70;;;;;;5014372;28;20077;-80
2021/09/24 05:46:16;;;;;;;83.18;39.08;;;16.20;95.90;;;;;;5014609;28;20055;-80
2021/09/24 05:48:42;;;;;;;76.90;36.55;;;16.20;96.00;;;;;;5013048;28;20437;-79
2021/09/24 05:51:08;;;;;;;73.30;37.28;;;16.20;95.90;;;;;;5011762;28;20113;-78
2021/09/24 05:53:34;;;;;;;80.55;37.20;;;16.20;96.10;;;;;;5001899;28;20030;-79
2021/09/24 05:55:59;;;;;;;70.40;35.33;;;16.30;96.00;;;;;;5016774;28;20030;-81
2021/09/24 05:58:25;;;;;;;78.57;37.65;;;16.30;96.10;;;;;;5008357;28;20033;-77
2021/09/24 06:00:51;;;;;;;75.32;38.90;;;16.30;96.10;;;;;;5018495;28;20022;-80
2021/09/24 06:03:17;;;;;;;76.00;38.47;;;16.30;96.30;;;;;;5024279;28;20573;-80
2021/09/24 06:05:42;;;;;;;67.70;37.65;;;16.40;96.40;;;;;;5022502;28;20058;-80
2021/09/24 06:08:08;;;;;;;74.63;35.38;;;16.40;96.30;;;;;;5003258;28;20073;-80
2021/09/24 06:10:34;;;;;;;89.93;42.53;;;16.40;96.40;;;;;;5017313;28;20018;-80
2021/09/24 06:13:00;;;;;;;77.70;39.53;;;16.40;96.50;;;;;;5029030;28;20076;-80
2021/09/24 06:15:26;;;;;;;76.18;39.20;;;16.40;96.50;;;;;;4996102;28;20034;-79
2021/09/24 06:17:52;;;;;;;85.07;41.17;;;16.40;96.60;;;;;;5029104;28;20054;-78
2021/09/24 06:20:19;;;;;;;71.32;39.30;;;16.40;96.70;;;;;;5015032;28;20054;-83
2021/09/24 06:22:46;;;;;;;75.05;38.25;;;16.50;96.70;;;;;;5027655;28;20014;-81
2021/09/24 06:25:12;;;;;;;71.85;38.15;;;16.50;96.70;;;;;;5007932;28;20116;-82
2021/09/24 06:27:39;;;;;;;73.18;38.67;;;16.50;96.70;;;;;;4998055;28;20034;-77
2021/09/24 06:30:07;;;;;;;72.47;37.55;;;16.50;96.70;;;;;;5027887;28;20109;-80
2021/09/24 06:32:33;;;;;;;67.82;34.83;;;16.50;96.70;;;;;;5030751;28;20017;-80
2021/09/24 06:34:59;;;;;;;65.55;34.63;;;16.50;96.80;;;;;;5013797;28;20029;-80
2021/09/24 06:37:25;;;;;;;75.32;36.85;;;16.50;96.70;;;;;;4997399;28;20117;-82
2021/09/24 06:39:50;;;;;;;64.65;36.03;;;16.50;96.80;;;;;;5013806;28;20045;-80
2021/09/24 06:42:16;;;;;;;63.67;33.72;;;16.60;96.70;;;;;;4997410;28;20022;-81
2021/09/24 06:44:42;;;;;;;59.80;32.97;;;16.60;96.70;;;;;;4997531;28;20026;-81
2021/09/24 06:47:08;;;;;;;62.20;34.00;;;16.60;96.70;;;;;;5014172;28;20030;-80
2021/09/24 06:49:35;;;;;;;59.63;33.03;;;16.60;96.70;;;;;;5013570;28;20034;-80
2021/09/24 06:52:02;;;;;;;65.75;34.67;;;16.60;96.60;;;;;;4997602;28;20081;-80
2021/09/24 06:54:28;;;;;;;60.30;33.45;;;16.60;96.70;;;;;;5013636;28;20026;-86
2021/09/24 06:56:53;;;;;;;60.67;32.25;;;16.60;96.70;;;;;;5014124;28;20525;-79
2021/09/24 06:59:20;;;;;;;62.13;34.47;;;16.60;96.60;;;;;;5013526;28;20026;-83
2021/09/24 07:01:45;;;;;;;59.17;34.55;;;16.60;96.60;;;;;;5013548;28;20133;-81
2021/09/24 07:04:12;;;;;;;63.13;34.45;;;16.60;96.60;;;;;;5013618;28;20529;-82
2021/09/24 07:06:38;;;;;;;59.63;32.03;;;16.70;96.70;;;;;;5014766;28;20033;-81
2021/09/24 07:09:04;;;;;;;58.08;32.92;;;16.70;96.60;;;;;;5014504;28;20054;-81
2021/09/24 07:11:31;;;;;;;60.78;34.42;;;16.70;96.60;;;;;;5014970;28;20056;-85
2021/09/24 07:13:57;;;;;;;58.55;33.70;;;16.70;96.60;;;;;;5013328;28;20486;-78
2021/09/24 07:16:23;;;;;;;59.40;31.75;;;16.70;96.50;;;;;;4997132;28;20026;-79
2021/09/24 07:18:48;;;;;;;54.22;31.25;;;16.70;96.50;;;;;;5013257;28;20058;-80
2021/09/24 07:21:14;;;;;;;55.03;33.03;;;16.80;96.60;;;;;;5013269;28;20022;-80
2021/09/24 07:23:40;;;;;;;59.75;34.80;;;16.80;96.50;;;;;;5013075;28;20026;-81
2021/09/24 07:26:06;;;;;;;67.13;33.30;;;16.80;96.50;;;;;;5012994;28;20034;-81
2021/09/24 07:28:32;;;;;;;62.65;31.55;;;16.90;96.40;;;;;;4996642;28;20030;-81
2021/09/24 07:30:58;;;;;;;66.97;34.92;;;16.90;96.50;;;;;;5014318;28;20117;-81
2021/09/24 07:33:23;;;;;;;69.45;37.70;;;16.90;96.40;;;;;;4996569;28;20124;-81
2021/09/24 07:35:49;;;;;;;59.45;33.28;;;16.90;96.70;;;;;;5013243;28;20065;-81
2021/09/24 07:38:18;;;;;;;61.22;35.17;;;16.90;96.30;;;;;;5013011;28;20030;-80
2021/09/24 07:40:44;;;;;;;73.75;37.53;;;17.00;96.30;;;;;;5013137;28;20048;-81
2021/09/24 07:43:10;;;;;;;64.47;35.50;;;17.10;96.30;;;;;;5012839;28;20018;-81
2021/09/24 07:45:36;;;;;;;70.10;36.00;;;17.10;96.20;;;;;;5013249;28;20026;-81
2021/09/24 07:48:02;;;;;;;61.42;33.28;;;17.10;96.20;;;;;;5013600;28;20100;-83
2021/09/24 07:50:27;;;;;;;73.53;36.50;;;17.10;96.10;;;;;;5013090;28;20144;-80
2021/09/24 07:52:53;;;;;;;70.00;37.78;;;17.10;96.10;;;;;;5013997;28;20026;-80
2021/09/24 07:55:19;;;;;;;72.35;39.15;;;17.20;96.10;;;;;;5012873;28;20029;-79
2021/09/24 07:57:46;;;;;;;66.10;34.03;;;17.20;96.00;;;;;;5013918;28;20034;-81
2021/09/24 08:00:12;;;;;;;69.40;34.60;;;17.20;96.00;;;;;;5012497;28;20449;-81
2021/09/24 08:02:38;;;;;;;77.13;38.42;;;17.30;95.90;;;;;;4996318;28;20030;-82
2021/09/24 08:05:04;;;;;;;76.05;39.08;;;17.30;95.90;;;;;;5012604;28;20075;-82
2021/09/24 08:07:29;;;;;;;81.97;39.25;;;17.30;95.90;;;;;;4996271;28;20154;-81
2021/09/24 08:09:55;;;;;;;79.07;39.42;;;17.30;95.80;;;;;;4996200;28;20501;-81
2021/09/24 08:12:21;;;;;;;86.60;41.05;;;17.30;95.80;;;;;;5013984;28;20048;-78
2021/09/24 08:14:46;;;;;;;81.60;38.03;;;17.30;95.80;;;;;;5014019;28;20080;-80
2021/09/24 08:17:12;;;;;;;72.43;36.55;;;17.40;95.80;;;;;;5013631;28;20034;-81
2021/09/24 08:19:38;;;;;;;76.95;36.83;;;17.40;95.80;;;;;;4996249;28;20036;-79
2021/09/24 08:22:05;;;;;;;81.70;40.40;;;17.40;95.70;;;;;;5013601;28;20030;-79
2021/09/24 08:24:31;;;;;;;77.07;40.38;;;17.50;95.70;;;;;;5012439;28;20030;-80
2021/09/24 08:26:56;;;;;;;79.85;41.15;;;17.50;95.70;;;;;;5012284;28;20200;-80
2021/09/24 08:29:22;;;;;;;73.47;37.25;;;17.60;95.70;;;;;;5012279;28;20041;-78
2021/09/24 08:31:48;;;;;;;74.22;36.05;;;17.70;95.70;;;;;;5012443;28;20425;-80
2021/09/24 08:34:14;;;;;;;74.53;39.90;;;17.80;95.60;;;;;;5012244;28;20440;-79
2021/09/24 08:36:39;;;;;;;73.82;38.63;;;17.80;95.50;;;;;;5012232;28;20030;-80
2021/09/24 08:39:06;;;;;;;67.50;38.40;;;17.90;95.40;;;;;;5012170;28;20397;-81
2021/09/24 08:41:32;;;;;;;76.80;39.70;;;18.00;95.30;;;;;;5013419;28;20018;-79
2021/09/24 08:43:58;;;;;;;67.82;38.53;;;18.00;95.10;;;;;;5013377;28;20014;-81
2021/09/24 08:46:25;;;;;;;69.15;37.67;;;18.10;95.00;;;;;;5013612;28;20022;-80
2021/09/24 08:48:51;;;;;;;64.97;37.42;;;18.10;94.90;;;;;;5013188;28;20117;-79
2021/09/24 08:51:17;;;;;;;64.32;36.08;;;18.20;94.80;;;;;;5012042;28;20037;-78
2021/09/24 08:53:43;;;;;;;55.15;34.55;;;18.20;94.70;;;;;;5013186;28;20041;-79
2021/09/24 08:56:10;;;;;;;57.83;33.42;;;18.20;94.50;;;;;;5011744;28;20025;-81
2021/09/24 08:58:36;;;;;;;65.35;35.10;;;18.30;94.40;;;;;;4995542;28;20026;-80
2021/09/24 09:01:03;;;;;;;61.85;34.58;;;18.30;94.30;;;;;;5015173;28;20106;-79
2021/09/24 09:03:41;;;;;;;52.90;32.05;;;18.40;94.40;;;;;;4998936;28;20018;-78
2021/09/24 09:06:08;;;;;;;55.25;33.05;;;18.50;94.30;;;;;;5016651;28;20022;-80
2021/09/24 09:08:34;;;;;;;50.58;31.05;;;18.60;94.00;;;;;;4999795;28;20046;-77
2021/09/24 09:11:07;;;;;;;50.78;32.40;;;18.70;93.70;;;;;;4999653;28;20100;-79
2021/09/24 09:13:40;;;;;;;51.00;30.13;;;18.70;93.60;;;;;;5017044;28;20036;-79
2021/09/24 09:16:14;;;;;;;43.30;28.75;;;18.80;93.40;;;;;;5015024;28;20088;-76
2021/09/24 09:18:42;;;;;;;43.65;28.42;;;18.90;93.30;;;;;;5015399;28;20041;-81
2021/09/24 09:21:12;;;;;;;42.03;29.10;;;19.10;93.20;;;;;;5015346;28;20109;-77
2021/09/24 09:23:40;;;;;;;41.50;27.75;;;19.20;93.00;;;;;;5015665;28;20442;-76
2021/09/24 09:26:10;;;;;;;40.13;26.75;;;19.30;92.80;;;;;;5015280;28;20443;-79
2021/09/24 09:28:49;;;;;;;41.35;27.85;;;19.50;92.50;;;;;;5015264;28;20029;-79
2021/09/24 09:31:30;;;;;;;39.63;26.27;;;19.60;92.10;;;;;;5015252;28;20030;-78
2021/09/24 09:34:08;;;;;;;33.65;22.75;;;19.80;91.80;;;;;;5015270;28;20018;-80
2021/09/24 09:36:36;;;;;;;36.58;24.15;;;19.80;91.40;;;;;;5015538;28;20026;-76
2021/09/24 09:39:11;;;;;;;34.60;24.58;;;19.90;91.10;;;;;;5015025;28;20029;-79
2021/09/24 09:41:51;;;;;;;36.00;25.13;;;20.00;90.80;;;;;;5016313;28;20032;-78
2021/09/24 09:44:32;;;;;;;35.22;23.92;;;20.00;90.20;;;;;;5015429;28;20105;-83
2021/09/24 09:46:58;;;;;;;31.85;22.02;;;20.00;90.00;;;;;;5015126;28;20085;-78
2021/09/24 09:49:29;;;;;;;33.97;23.52;;;19.90;90.00;;;;;;5014880;28;20022;-80
2021/09/24 09:52:11;;;;;;;34.03;19.85;;;19.90;90.00;;;;;;5015941;28;20038;-81
2021/09/24 09:54:37;;;;;;;27.42;18.42;;;19.90;89.70;;;;;;4994972;28;20113;-81
2021/09/24 09:57:18;;;;;;;21.92;16.75;;;20.00;89.90;;;;;;5000061;28;20036;-82
2021/09/24 09:59:55;;;;;;;26.80;18.52;;;20.10;89.30;;;;;;5015737;28;20032;-82
2021/09/24 10:02:20;;;;;;;22.85;16.52;;;20.20;88.40;;;;;;5014724;28;20414;-83
2021/09/24 10:04:51;;;;;;;23.48;15.90;;;20.30;87.60;;;;;;5015803;28;20053;-76
2021/09/24 10:07:18;;;;;;;23.50;17.02;;;20.30;87.10;;;;;;5014724;28;20386;-77
2021/09/24 10:09:45;;;;;;;23.35;14.73;;;20.30;86.70;;;;;;5008780;28;20105;-85
2021/09/24 10:12:30;;;;;;;18.85;15.73;;;20.40;86.00;;;;;;5008879;28;20545;-79
2021/09/24 10:14:56;;;;;;;19.15;13.90;;;20.40;85.90;;;;;;5009838;28;20478;-81
2021/09/24 10:17:23;;;;;;;17.63;13.57;;;20.60;85.80;;;;;;4998830;28;20033;-81
2021/09/24 10:19:50;;;;;;;18.67;13.88;;;20.70;85.00;;;;;;5015690;28;20350;-80
2021/09/24 10:22:17;;;;;;;18.67;14.27;;;20.90;84.80;;;;;;4998036;28;20057;-81
2021/09/24 10:24:43;;;;;;;16.35;11.70;;;21.00;84.10;;;;;;4998347;28;20474;-81
2021/09/24 10:27:29;;;;;;;19.50;12.40;;;21.20;83.70;;;;;;5015513;28;20026;-81
2021/09/24 10:29:57;;;;;;;16.58;11.23;;;21.50;83.10;;;;;;5014163;28;20386;-79
2021/09/24 10:32:26;;;;;;;17.08;10.32;;;21.80;81.90;;;;;;5015421;28;20021;-80
2021/09/24 10:35:01;;;;;;;14.50;10.05;;;21.90;80.20;;;;;;5015109;28;20045;-83
2021/09/24 10:37:29;;;;;;;14.68;10.93;;;22.00;80.10;;;;;;5012971;28;20029;-81
2021/09/24 10:39:59;;;;;;;15.10;10.02;;;22.20;79.50;;;;;;5015246;28;20025;-79
2021/09/24 10:42:34;;;;;;;13.38;9.75;;;22.40;78.50;;;;;;5015148;28;20041;-77
2021/09/24 10:45:12;;;;;;;15.10;10.75;;;22.50;75.50;;;;;;5014020;28;20026;-83
2021/09/24 10:47:55;;;;;;;15.35;11.45;;;22.30;75.30;;;;;;5013997;28;20029;-77
2021/09/24 10:50:30;;;;;;;15.27;10.48;;;22.20;74.50;;;;;;5014061;28;20029;-81
2021/09/24 10:53:08;;;;;;;13.85;10.48;;;22.10;74.30;;;;;;5014905;28;20048;-81
2021/09/24 10:55:34;;;;;;;17.25;11.35;;;22.00;74.20;;;;;;5015104;28;20045;-80
2021/09/24 10:58:01;;;;;;;15.85;10.48;;;21.90;74.50;;;;;;5014958;28;20045;-79
2021/09/24 11:00:32;;;;;;;15.55;11.63;;;21.80;74.70;;;;;;5014672;28;20022;-83
2021/09/24 11:03:11;;;;;;;18.25;12.10;;;21.70;74.90;;;;;;5029700;28;20509;-78
2021/09/24 11:05:58;;;;;;;13.20;11.27;;;21.60;75.10;;;;;;5013419;28;20067;-78
2021/09/24 11:08:31;;;;;;;16.40;10.88;;;21.60;75.00;;;;;;5014852;28;20497;-76
2021/09/24 11:11:23;;;;;;;14.75;10.65;;;21.90;76.00;;;;;;5013325;28;20025;-75
2021/09/24 11:13:52;;;;;;;13.63;9.57;;;22.30;74.90;;;;;;5014993;28;20029;-77
2021/09/24 11:16:43;;;;;;;15.38;10.52;;;22.40;74.00;;;;;;5014601;28;20033;-75
2021/09/24 11:19:35;;;;;;;16.90;13.20;;;22.40;73.50;;;;;;4999202;28;20046;-80
2021/09/24 11:22:12;;;;;;;20.88;13.00;;;22.30;73.10;;;;;;5013158;28;20026;-82
2021/09/24 11:24:45;;;;;;;18.15;12.20;;;22.20;72.90;;;;;;5013804;28;20105;-82
2021/09/24 11:27:29;;;;;;;15.30;10.73;;;22.20;73.40;;;;;;5014343;28;20033;-77
2021/09/24 11:30:04;;;;;;;15.90;11.98;;;22.20;73.50;;;;;;5014446;28;20029;-82
2021/09/24 11:32:43;;;;;;;16.80;11.90;;;22.20;72.90;;;;;;5029723;28;20037;-82
2021/09/24 11:35:30;;;;;;;14.25;11.10;;;22.20;73.10;;;;;;5029471;28;20018;-76
2021/09/24 11:38:14;;;;;;;17.13;12.73;;;22.20;72.70;;;;;;5029444;28;20056;-79
2021/09/24 11:40:46;;;;;;;17.85;14.23;;;22.30;72.00;;;;;;5014318;28;20489;-82
2021/09/24 11:43:14;;;;;;;16.65;13.82;;;22.30;71.60;;;;;;5013409;28;20080;-83
2021/09/24 11:45:42;;;;;;;17.55;13.88;;;22.20;71.80;;;;;;5013092;28;20450;-83
2021/09/24 11:48:09;;;;;;;17.25;13.63;;;22.20;71.60;;;;;;5029250;28;20040;-82
2021/09/24 11:50:36;;;;;;;15.48;12.52;;;22.20;72.00;;;;;;5013046;28;20048;-78
2021/09/24 11:53:04;;;;;;;23.35;15.27;;;22.20;71.80;;;;;;5029093;28;20021;-84
2021/09/24 11:55:37;;;;;;;21.42;13.85;;;22.30;71.80;;;;;;5013205;28;20061;-82
2021/09/24 11:58:23;;;;;;;18.77;14.90;;;22.30;71.80;;;;;;5028933;28;20511;-77
2021/09/24 12:00:51;;;;;;;18.58;15.18;;;22.30;72.00;;;;;;5014056;28;20413;-77
2021/09/24 12:03:17;;;;;;;17.77;14.75;;;22.40;72.90;;;;;;5013894;28;20025;-77
2021/09/24 12:06:04;;;;;;;17.20;13.75;;;22.40;71.90;;;;;;5012623;28;20441;-75
2021/09/24 12:08:34;;;;;;;14.85;12.13;;;22.50;71.90;;;;;;5014014;28;20428;-78
2021/09/24 12:11:13;;;;;;;18.02;14.02;;;22.50;72.00;;;;;;5012328;28;20486;-77
2021/09/24 12:13:43;;;;;;;15.82;13.13;;;22.60;71.80;;;;;;5012447;28;20026;-77
2021/09/24 12:16:17;;;;;;;18.00;13.77;;;22.70;72.40;;;;;;5013559;28;20034;-79
2021/09/24 12:18:55;;;;;;;15.50;11.52;;;23.00;71.70;;;;;;5012311;28;20129;-78
2021/09/24 12:21:27;;;;;;;15.98;12.40;;;23.40;71.30;;;;;;5014030;28;20099;-78
2021/09/24 12:23:53;;;;;;;15.30;10.45;;;23.70;70.00;;;;;;5013868;28;20475;-76
2021/09/24 12:26:29;;;;;;;16.35;10.45;;;23.80;69.50;;;;;;5012280;28;20033;-76
2021/09/24 12:29:02;;;;;;;13.15;9.43;;;23.80;69.00;;;;;;5012203;28;20018;-76
2021/09/24 12:31:37;;;;;;;10.90;7.78;;;23.80;68.60;;;;;;5013548;28;20045;-81
2021/09/24 12:34:05;;;;;;;9.98;7.47;;;23.70;68.60;;;;;;5014398;28;20030;-80